createdAt,value
2022-09-13T00:02:21.887Z,16.50
2022-09-13T00:04:49.281Z,16.50
2022-09-13T00:07:16.904Z,16.50
2022-09-13T00:09:44.241Z,16.50
2022-09-13T00:12:11.489Z,16.50
2022-09-13T00:14:38.835Z,16.50
2022-09-13T00:17:06.093Z,16.50
2022-09-13T00:19:33.573Z,16.60
2022-09-13T00:22:00.711Z,16.50
2022-09-13T00:24:28.084Z,16.50
2022-09-13T00:26:55.341Z,16.50
2022-09-13T00:29:22.621Z,16.60
2022-09-13T00:31:50.000Z,16.50
2022-09-13T00:34:17.736Z,16.50
2022-09-13T00:37:44.631Z,16.50
2022-09-13T00:40:12.138Z,16.60
2022-09-13T00:42:39.447Z,16.50
2022-09-13T00:45:12.659Z,16.60
2022-09-13T00:47:58.965Z,16.60
2022-09-13T00:50:35.558Z,16.60
2022-09-13T00:53:14.012Z,16.60
2022-09-13T00:55:51.228Z,16.60
2022-09-13T00:58:26.090Z,16.60
2022-09-13T01:00:55.583Z,16.50
2022-09-13T01:03:26.104Z,16.60
2022-09-13T01:06:07.635Z,16.50
2022-09-13T01:08:37.462Z,16.50
2022-09-13T01:11:12.372Z,16.60
2022-09-13T01:13:39.955Z,16.60
2022-09-13T01:16:07.530Z,16.50
2022-09-13T01:18:34.712Z,16.50
2022-09-13T01:21:26.797Z,16.50
2022-09-13T01:24:31.265Z,16.50
2022-09-13T01:27:13.405Z,16.50
2022-09-13T01:30:05.454Z,16.50
2022-09-13T01:33:10.420Z,16.50
2022-09-13T01:36:05.013Z,16.50
2022-09-13T01:38:51.592Z,16.50
2022-09-13T01:41:46.052Z,16.50
2022-09-13T01:44:51.327Z,16.50
2022-09-13T01:47:30.732Z,16.50
2022-09-13T01:50:20.106Z,16.50
2022-09-13T01:53:05.918Z,16.50
2022-09-13T01:55:49.158Z,16.50
2022-09-13T01:58:22.943Z,16.40
2022-09-13T02:01:21.527Z,16.40
2022-09-13T02:04:45.351Z,16.30
2022-09-13T02:07:22.220Z,16.40
2022-09-13T02:09:51.937Z,16.30
2022-09-13T02:12:31.756Z,16.30
2022-09-13T02:15:40.621Z,16.30
2022-09-13T02:18:18.945Z,16.20
2022-09-13T04:33:07.179Z,15.90
2022-09-13T04:36:48.425Z,16.00
2022-09-13T04:40:12.925Z,16.00
2022-09-13T04:42:45.248Z,15.90
2022-09-13T04:45:15.414Z,15.90
2022-09-13T04:47:42.757Z,16.00
2022-09-13T04:50:13.173Z,16.00
2022-09-13T04:52:40.597Z,16.00
2022-09-13T04:55:20.792Z,16.00
2022-09-13T05:01:36.032Z,16.00
2022-09-13T05:04:18.225Z,16.00
2022-09-13T05:07:50.481Z,16.00
2022-09-13T05:10:19.658Z,15.90
2022-09-13T05:12:47.493Z,16.00
2022-09-13T05:15:14.934Z,16.00
2022-09-13T05:17:42.279Z,16.00
2022-09-13T05:20:10.070Z,16.00
2022-09-13T05:22:37.628Z,16.00
2022-09-13T05:25:05.213Z,16.00
2022-09-13T05:27:32.337Z,16.00
2022-09-13T05:29:59.473Z,16.00
2022-09-13T05:32:26.880Z,16.10
2022-09-13T05:34:54.213Z,16.10
2022-09-13T05:37:21.647Z,16.10
2022-09-13T05:40:10.137Z,16.10
2022-09-13T05:42:36.245Z,16.10
2022-09-13T05:45:03.787Z,16.10
2022-09-13T05:47:32.733Z,16.20
2022-09-13T05:51:05.235Z,16.20
2022-09-13T06:00:56.643Z,16.20
2022-09-13T06:01:01.209Z,16.20
2022-09-13T06:03:25.303Z,16.10
2022-09-13T06:05:56.902Z,16.10
2022-09-13T06:08:25.594Z,16.10
2022-09-13T06:11:15.854Z,16.10
2022-09-13T06:13:45.923Z,16.20
2022-09-13T06:16:14.570Z,16.10
2022-09-13T06:18:41.815Z,16.20
2022-09-13T06:21:18.187Z,16.20
2022-09-13T06:23:51.415Z,16.20
2022-09-13T06:26:21.605Z,16.20
2022-09-13T06:28:57.498Z,16.20
2022-09-13T06:31:26.693Z,16.20
2022-09-13T06:33:59.915Z,16.30
2022-09-13T06:36:27.679Z,16.30
2022-09-13T06:38:54.907Z,16.30
2022-09-13T06:41:26.578Z,16.30
2022-09-13T06:43:58.953Z,16.40
2022-09-13T06:46:30.742Z,16.40
2022-09-13T06:49:06.801Z,16.40
2022-09-13T06:51:35.635Z,16.40
2022-09-13T06:54:04.215Z,16.40
2022-09-13T06:56:40.254Z,16.50
2022-09-13T06:59:16.179Z,16.50
2022-09-13T07:01:46.965Z,16.50
2022-09-13T07:04:16.813Z,16.50
2022-09-13T07:06:48.855Z,16.50
2022-09-13T07:09:45.759Z,16.60
2022-09-13T07:12:25.336Z,16.60
2022-09-13T07:14:58.643Z,16.70
2022-09-13T07:17:31.431Z,16.80
2022-09-13T07:19:58.995Z,16.90
2022-09-13T07:22:31.688Z,16.90
2022-09-13T07:25:01.786Z,16.90
2022-09-13T07:30:50.370Z,17.00
2022-09-13T07:33:20.908Z,17.10
2022-09-13T07:35:55.815Z,17.10
2022-09-13T07:38:26.108Z,17.20
2022-09-13T07:41:01.292Z,17.20
2022-09-13T07:43:31.660Z,17.30
2022-09-13T07:46:07.576Z,17.30
2022-09-13T07:48:37.790Z,17.40
2022-09-13T07:51:44.341Z,17.40
2022-09-13T07:54:14.927Z,17.50
2022-09-13T07:56:42.964Z,17.50
2022-09-13T07:59:15.549Z,17.60
2022-09-13T08:01:48.036Z,17.60
2022-09-13T08:04:21.701Z,17.70
2022-09-13T08:06:50.235Z,17.70
2022-09-13T08:09:17.876Z,17.80
2022-09-13T08:11:53.447Z,17.80
2022-09-13T08:14:22.683Z,17.90
2022-09-13T08:16:50.165Z,17.90
2022-09-13T08:19:19.125Z,17.90
2022-09-13T08:21:47.598Z,17.90
2022-09-13T08:24:18.092Z,17.90
2022-09-13T08:26:46.858Z,17.90
2022-09-13T08:29:15.435Z,18.00
2022-09-13T08:31:43.361Z,18.00
2022-09-13T08:34:15.973Z,18.10
2022-09-13T08:36:46.474Z,18.20
2022-09-13T08:39:14.271Z,18.20
2022-09-13T08:41:46.553Z,18.30
2022-09-13T08:44:39.158Z,18.30
2022-09-13T08:47:18.590Z,18.40
2022-09-13T08:50:05.211Z,18.50
2022-09-13T08:52:59.820Z,18.50
2022-09-13T08:55:49.219Z,18.50
2022-09-13T08:59:07.380Z,18.60
2022-09-13T09:02:00.418Z,18.60
2022-09-13T09:04:33.512Z,18.70
2022-09-13T09:07:10.482Z,18.80
2022-09-13T09:09:48.494Z,18.80
2022-09-13T09:12:21.764Z,18.80
2022-09-13T09:15:05.669Z,18.90
2022-09-13T09:17:59.292Z,18.90
2022-09-13T09:20:34.156Z,19.00
2022-09-13T09:23:06.439Z,19.00
2022-09-13T09:25:35.562Z,19.10
2022-09-13T09:28:10.218Z,19.20
2022-09-13T09:31:02.288Z,19.30
2022-09-13T09:33:44.789Z,19.30
2022-09-13T09:36:24.051Z,19.30
2022-09-13T09:38:53.043Z,19.30
2022-09-13T09:41:33.763Z,19.30
2022-09-13T09:44:14.466Z,19.40
2022-09-13T09:46:42.992Z,19.50
2022-09-13T09:49:56.938Z,19.70
2022-09-13T09:52:31.309Z,19.90
2022-09-13T09:55:11.444Z,20.00
2022-09-13T09:57:53.482Z,20.00
2022-09-13T10:00:22.527Z,19.90
2022-09-13T10:02:53.164Z,19.90
2022-09-13T10:05:23.254Z,19.90
2022-09-13T10:07:58.860Z,19.90
2022-09-13T10:10:52.953Z,20.00
2022-09-13T10:13:22.823Z,20.00
2022-09-13T10:16:02.984Z,20.10
2022-09-13T10:18:43.954Z,20.10
2022-09-13T10:21:18.254Z,20.10
2022-09-13T10:23:52.660Z,20.00
2022-09-13T10:26:26.953Z,19.90
2022-09-13T10:29:08.645Z,19.90
2022-09-13T10:31:43.430Z,19.80
2022-09-13T10:34:33.119Z,19.80
2022-09-13T10:37:04.564Z,19.80
2022-09-13T10:39:36.679Z,19.90
2022-09-13T10:42:07.030Z,20.00
2022-09-13T10:44:57.407Z,20.20
2022-09-13T10:47:48.176Z,20.40
2022-09-13T10:50:22.289Z,20.60
2022-09-13T10:52:56.089Z,20.80
2022-09-13T10:55:23.252Z,21.00
2022-09-13T10:57:53.086Z,21.20
2022-09-13T11:00:23.263Z,21.50
2022-09-13T11:03:09.193Z,21.70
2022-09-13T11:05:54.404Z,21.90
2022-09-13T11:08:43.442Z,22.20
2022-09-13T11:11:24.980Z,22.30
2022-09-13T11:14:15.152Z,22.30
2022-09-13T11:16:52.076Z,22.30
2022-09-13T11:19:45.813Z,22.40
2022-09-13T11:22:22.492Z,22.30
2022-09-13T11:25:17.022Z,22.30
2022-09-13T11:27:58.182Z,22.40
2022-09-13T11:30:30.027Z,22.30
2022-09-13T11:33:18.357Z,22.40
2022-09-13T11:36:04.090Z,22.50
2022-09-13T11:38:49.355Z,22.50
2022-09-13T11:41:33.329Z,22.50
2022-09-13T11:44:18.625Z,22.40
2022-09-13T11:46:57.301Z,22.30
2022-09-13T11:49:52.745Z,22.30
2022-09-13T11:52:37.071Z,22.40
2022-09-13T11:55:29.686Z,22.50
2022-09-13T11:58:04.575Z,22.60
2022-09-13T12:00:40.871Z,22.70
2022-09-13T12:03:17.251Z,22.70
2022-09-13T12:06:01.837Z,22.80
2022-09-13T12:08:42.874Z,22.70
2022-09-13T12:11:24.542Z,22.70
2022-09-13T12:13:56.749Z,22.80
2022-09-13T12:16:35.445Z,22.90
2022-09-13T12:19:20.547Z,22.90
2022-09-13T12:21:49.397Z,22.90
2022-09-13T12:24:19.447Z,23.00
2022-09-13T12:26:51.313Z,22.90
2022-09-13T12:29:46.389Z,23.00
2022-09-13T12:32:14.748Z,22.90
2022-09-13T12:35:04.150Z,22.90
2022-09-13T12:37:42.472Z,22.90
2022-09-13T12:40:34.583Z,23.10
2022-09-13T12:43:39.206Z,23.20
2022-09-13T12:46:20.030Z,23.30
2022-09-13T12:49:31.176Z,23.30
2022-09-13T12:52:39.373Z,23.20
2022-09-13T12:55:46.984Z,23.00
2022-09-13T12:58:34.535Z,22.80
2022-09-13T13:01:25.120Z,22.60
2022-09-13T13:03:57.321Z,22.40
2022-09-13T13:06:33.274Z,22.30
2022-09-13T13:09:05.673Z,22.10
2022-09-13T13:11:45.131Z,22.00
2022-09-13T13:14:44.230Z,21.90
2022-09-13T13:17:37.965Z,21.80
2022-09-13T13:20:39.442Z,21.80
2022-09-13T13:23:30.321Z,21.90
2022-09-13T13:26:11.935Z,21.90
2022-09-13T13:28:45.375Z,22.10
2022-09-13T13:31:24.992Z,22.10
2022-09-13T13:34:02.882Z,22.20
2022-09-13T13:36:42.155Z,22.20
2022-09-13T13:39:27.208Z,22.20
2022-09-13T13:42:03.370Z,22.20
2022-09-13T13:44:32.150Z,22.20
2022-09-13T13:47:22.541Z,22.30
2022-09-13T13:50:18.862Z,22.20
2022-09-13T13:52:52.472Z,22.10
2022-09-13T13:55:40.539Z,22.00
2022-09-13T13:58:19.837Z,21.90
2022-09-13T14:00:50.842Z,21.90
2022-09-13T14:03:24.080Z,21.80
2022-09-13T14:06:10.845Z,21.80
2022-09-13T14:09:05.213Z,21.70
2022-09-13T14:11:41.225Z,21.60
2022-09-13T14:14:30.528Z,21.60
2022-09-13T14:17:25.640Z,21.50
2022-09-13T14:19:56.349Z,21.50
2022-09-13T14:22:28.864Z,21.50
2022-09-13T14:24:58.390Z,21.50
2022-09-13T14:27:35.932Z,21.40
2022-09-13T14:30:16.166Z,21.40
2022-09-13T14:32:45.730Z,21.40
2022-09-13T14:35:29.918Z,21.40
2022-09-13T14:38:14.109Z,21.40
2022-09-13T14:40:41.190Z,21.30
2022-09-13T14:43:25.621Z,21.20
2022-09-13T14:46:07.981Z,21.20
2022-09-13T14:48:45.675Z,21.20
2022-09-13T14:51:15.597Z,21.20
2022-09-13T14:53:46.381Z,21.20
2022-09-13T14:56:21.529Z,21.20
2022-09-13T14:58:53.838Z,21.30
2022-09-13T15:01:29.037Z,21.30
2022-09-13T15:03:57.085Z,21.40
2022-09-13T15:06:44.435Z,21.40
2022-09-13T15:09:11.794Z,21.40
2022-09-13T15:11:52.471Z,21.30
2022-09-13T15:14:31.522Z,21.30
2022-09-13T15:17:14.282Z,21.30
2022-09-13T15:19:49.387Z,21.30
2022-09-13T15:22:36.542Z,21.30
2022-09-13T15:25:04.214Z,21.30
2022-09-13T15:27:46.127Z,21.30
2022-09-13T15:30:30.395Z,21.30
2022-09-13T15:33:13.011Z,21.40
2022-09-13T15:35:42.843Z,21.40
2022-09-13T15:38:25.366Z,21.40
2022-09-13T15:41:03.201Z,21.40
2022-09-13T15:43:31.564Z,21.30
2022-09-13T15:46:01.667Z,21.20
2022-09-13T15:48:32.393Z,21.20
2022-09-13T15:51:11.721Z,21.20
2022-09-13T15:53:44.759Z,21.20
2022-09-13T15:56:20.214Z,21.10
2022-09-13T15:58:47.802Z,21.00
2022-09-13T16:01:16.601Z,20.90
2022-09-13T16:03:44.330Z,20.90
2022-09-13T16:06:12.076Z,20.80
2022-09-13T16:08:40.264Z,20.70
2022-09-13T16:11:08.389Z,20.60
2022-09-13T16:13:36.621Z,20.60
2022-09-13T16:16:07.391Z,20.50
2022-09-13T16:18:34.684Z,20.30
2022-09-13T16:21:01.774Z,20.30
2022-09-13T16:23:29.137Z,20.20
2022-09-13T16:25:58.845Z,20.20
2022-09-13T16:28:26.914Z,20.10
2022-09-13T16:30:54.968Z,20.00
2022-09-13T16:33:24.867Z,19.90
2022-09-13T16:35:52.313Z,19.80
2022-09-13T16:38:19.667Z,19.80
2022-09-13T16:40:46.803Z,19.70
2022-09-13T16:43:14.105Z,19.70
2022-09-13T16:45:42.075Z,19.70
2022-09-13T16:48:09.671Z,19.60
2022-09-13T16:50:40.714Z,19.60
2022-09-13T16:53:08.828Z,19.50
2022-09-13T16:55:36.644Z,19.50
2022-09-13T16:58:08.967Z,19.40
2022-09-13T17:00:36.253Z,19.40
2022-09-13T17:03:03.649Z,19.30
2022-09-13T17:05:30.807Z,19.30
2022-09-13T17:07:58.348Z,19.20
2022-09-13T17:10:25.643Z,19.20
2022-09-13T17:12:53.012Z,19.20
2022-09-13T17:15:20.275Z,19.10
2022-09-13T17:17:49.728Z,19.10
2022-09-13T17:20:17.196Z,19.00
2022-09-13T17:22:44.272Z,18.90
2022-09-13T17:25:11.648Z,18.90
2022-09-13T17:27:38.807Z,18.80
2022-09-13T17:30:07.100Z,18.80
2022-09-13T17:32:34.281Z,18.80
2022-09-13T17:35:01.919Z,18.70
2022-09-13T17:37:29.149Z,18.70
2022-09-13T17:39:56.513Z,18.60
2022-09-13T17:42:23.794Z,18.60
2022-09-13T17:44:51.189Z,18.50
2022-09-13T17:47:18.335Z,18.50
2022-09-13T17:49:46.813Z,18.40
2022-09-13T17:52:14.236Z,18.30
2022-09-13T17:54:41.456Z,18.30
2022-09-13T17:57:12.010Z,18.20
2022-09-13T17:59:39.338Z,18.20
2022-09-13T18:02:07.062Z,18.20
2022-09-13T18:04:34.403Z,18.10
2022-09-13T18:07:01.570Z,18.10
2022-09-13T18:09:29.185Z,18.00
2022-09-13T18:11:56.641Z,18.00
2022-09-13T18:14:24.614Z,17.90
2022-09-13T18:16:56.103Z,17.90
2022-09-13T18:19:44.346Z,17.90
2022-09-13T18:22:11.526Z,17.80
2022-09-13T18:24:38.818Z,17.70
2022-09-13T18:27:06.117Z,17.70
2022-09-13T18:29:33.430Z,17.60
2022-09-13T18:32:00.779Z,17.60
2022-09-13T18:34:28.105Z,17.50
2022-09-13T18:36:55.676Z,17.50
2022-09-13T18:39:23.224Z,17.50
2022-09-13T18:41:50.381Z,17.40
2022-09-13T18:44:18.551Z,17.40
2022-09-13T18:46:51.758Z,17.30
2022-09-13T18:49:19.904Z,17.30
2022-09-13T18:51:47.093Z,17.20
2022-09-13T18:54:16.910Z,17.20
2022-09-13T18:56:45.169Z,17.20
2022-09-13T18:59:12.653Z,17.10
2022-09-13T19:01:42.331Z,17.10
2022-09-13T19:04:20.448Z,17.00
2022-09-13T19:06:50.360Z,17.00
2022-09-13T19:09:18.065Z,16.90
2022-09-13T19:11:48.448Z,16.90
2022-09-13T19:14:24.625Z,16.90
2022-09-13T19:16:56.111Z,16.80
2022-09-13T19:19:24.358Z,16.80
2022-09-13T19:21:51.793Z,16.70
2022-09-13T19:24:20.612Z,16.60
2022-09-13T19:26:51.250Z,16.60
2022-09-13T19:29:20.983Z,16.50
2022-09-13T19:31:49.603Z,16.50
2022-09-13T19:34:19.018Z,16.50
2022-09-13T19:36:46.745Z,16.40
2022-09-13T19:39:14.365Z,16.40
2022-09-13T19:41:42.079Z,16.40
2022-09-13T19:44:10.598Z,16.40
2022-09-13T19:46:40.021Z,16.40
2022-09-13T19:49:12.192Z,16.40
2022-09-13T19:51:40.995Z,16.30
2022-09-13T19:54:11.803Z,16.30
2022-09-13T19:56:42.490Z,16.30
2022-09-13T19:59:12.831Z,16.30
2022-09-13T20:01:44.782Z,16.30
2022-09-13T20:04:15.507Z,16.30
2022-09-13T20:06:48.111Z,16.30
2022-09-13T20:09:17.662Z,16.30
2022-09-13T20:11:46.062Z,16.20
2022-09-13T20:14:15.449Z,16.20
2022-09-13T20:16:43.298Z,16.20
2022-09-13T20:22:08.764Z,16.10
2022-09-13T20:24:36.207Z,16.10
2022-09-13T20:27:03.523Z,16.10
2022-09-13T20:29:31.916Z,16.10
2022-09-13T20:32:00.219Z,16.10
2022-09-13T20:34:28.233Z,16.10
2022-09-13T20:36:55.583Z,16.10
2022-09-13T20:39:23.099Z,16.10
2022-09-13T20:41:50.384Z,16.10
2022-09-13T20:44:18.195Z,16.10
2022-09-13T20:46:45.493Z,16.10
2022-09-13T20:49:12.760Z,16.00
2022-09-13T20:51:40.194Z,16.00
2022-09-13T20:54:08.010Z,16.00
2022-09-13T20:56:36.426Z,16.00
2022-09-13T20:59:04.412Z,16.00
2022-09-13T21:01:32.920Z,16.00
2022-09-13T21:04:01.002Z,15.90
2022-09-13T21:06:31.881Z,15.90
2022-09-13T21:09:02.041Z,15.90
2022-09-13T21:11:34.108Z,15.90
2022-09-13T21:14:10.339Z,15.90
2022-09-13T21:16:41.538Z,15.90
2022-09-13T21:19:09.397Z,15.90
2022-09-13T21:21:38.916Z,15.80
2022-09-13T21:24:11.574Z,15.80
2022-09-13T21:26:42.579Z,15.80
2022-09-13T21:29:11.810Z,15.80
2022-09-13T21:31:39.926Z,15.70
2022-09-13T21:34:12.414Z,15.70
2022-09-13T21:36:39.630Z,15.70
2022-09-13T21:39:07.266Z,15.70
2022-09-13T21:41:34.668Z,15.70
2022-09-13T21:44:02.382Z,15.70
2022-09-13T21:46:32.080Z,15.70
2022-09-13T21:49:01.602Z,15.70
2022-09-13T21:51:36.517Z,15.70
2022-09-13T21:54:06.985Z,15.70
2022-09-13T21:56:41.591Z,15.70
2022-09-13T21:59:16.141Z,15.70
2022-09-13T22:01:47.021Z,15.60
2022-09-13T22:04:17.908Z,15.60
2022-09-13T22:06:47.173Z,15.50
2022-09-13T22:09:15.471Z,15.50
2022-09-13T22:11:45.511Z,15.50
2022-09-13T22:14:16.815Z,15.50
2022-09-13T22:16:46.672Z,15.50
2022-09-13T22:19:23.844Z,15.50
2022-09-13T22:21:56.236Z,15.40
2022-09-13T22:24:27.747Z,15.40
2022-09-13T22:26:56.739Z,15.40
2022-09-13T22:29:24.507Z,15.40
2022-09-13T22:31:52.664Z,15.40
2022-09-13T22:34:23.246Z,15.30
2022-09-13T22:36:50.417Z,15.30
2022-09-13T22:39:18.317Z,15.30
2022-09-13T22:41:46.133Z,15.30
2022-09-13T22:44:13.787Z,15.30
2022-09-13T22:46:43.606Z,15.30
2022-09-13T22:49:16.768Z,15.30
2022-09-13T22:51:47.357Z,15.30
2022-09-13T22:54:16.595Z,15.30
2022-09-13T22:56:43.887Z,15.30
2022-09-13T22:59:21.009Z,15.30
2022-09-13T23:01:48.739Z,15.30
2022-09-13T23:04:16.573Z,15.30
2022-09-13T23:06:44.864Z,15.30
2022-09-13T23:09:15.535Z,15.30
2022-09-13T23:11:43.422Z,15.30
2022-09-13T23:14:14.816Z,15.30
2022-09-13T23:16:50.529Z,15.30
2022-09-13T23:19:19.502Z,15.30
2022-09-13T23:21:46.749Z,15.30
2022-09-13T23:24:18.963Z,15.20
2022-09-13T23:26:46.848Z,15.20
2022-09-13T23:29:17.433Z,15.20
2022-09-13T23:31:46.613Z,15.10
2022-09-13T23:34:14.549Z,15.10
2022-09-13T23:36:44.166Z,15.10
2022-09-13T23:39:16.960Z,15.10
2022-09-13T23:41:46.104Z,15.00
2022-09-13T23:44:13.685Z,15.00
2022-09-13T23:46:41.041Z,15.00
2022-09-13T23:49:08.354Z,15.00
2022-09-13T23:51:35.623Z,15.00
2022-09-13T23:54:03.125Z,15.00
2022-09-13T23:56:32.029Z,14.90
2022-09-13T23:59:01.168Z,14.90
